createdAt,value
2019-04-22T00:00:16.694Z,0.00
2019-04-22T00:01:21.547Z,0.00
2019-04-22T00:02:15.211Z,0.00
2019-04-22T00:03:16.785Z,0.00
2019-04-22T00:04:22.991Z,0.00
2019-04-22T00:05:36.500Z,0.00
2019-04-22T00:06:42.486Z,0.00
2019-04-22T00:07:38.971Z,0.00
2019-04-22T00:08:36.120Z,0.00
2019-04-22T00:09:41.843Z,0.00
2019-04-22T00:10:43.588Z,0.00
2019-04-22T00:12:00.378Z,0.00
2019-04-22T00:12:42.352Z,0.00
2019-04-22T00:13:49.175Z,0.00
2019-04-22T00:14:35.167Z,0.00
2019-04-22T00:15:39.226Z,0.00
2019-04-22T00:16:47.248Z,0.00
2019-04-22T00:17:45.493Z,0.00
2019-04-22T00:18:57.834Z,0.00
2019-04-22T00:19:45.335Z,0.00
2019-04-22T00:20:43.206Z,0.00
2019-04-22T00:22:40.194Z,0.00
2019-04-22T00:23:39.522Z,0.00
2019-04-22T00:24:46.832Z,0.00
2019-04-22T00:25:48.329Z,0.00
2019-04-22T00:26:44.498Z,0.00
2019-04-22T00:27:51.066Z,0.00
2019-04-22T00:28:44.079Z,0.00
2019-04-22T00:30:02.385Z,0.00
2019-04-22T00:30:41.925Z,0.00
2019-04-22T00:31:41.690Z,0.00
2019-04-22T00:32:43.344Z,0.00
2019-04-22T00:33:38.889Z,0.00
2019-04-22T00:34:44.019Z,0.00
2019-04-22T00:35:42.007Z,0.00
2019-04-22T00:36:43.779Z,0.00
2019-04-22T00:37:46.241Z,0.00
2019-04-22T00:38:49.514Z,0.00
2019-04-22T00:39:46.480Z,0.00
2019-04-22T00:40:44.952Z,0.00
2019-04-22T00:41:44.077Z,0.00
2019-04-22T00:42:46.947Z,0.00
2019-04-22T00:43:48.170Z,0.00
2019-04-22T00:44:45.120Z,0.00
2019-04-22T00:45:44.833Z,0.00
2019-04-22T00:46:47.891Z,0.00
2019-04-22T00:47:54.846Z,0.00
2019-04-22T00:48:57.696Z,0.00
2019-04-22T00:50:48.205Z,0.00
2019-04-22T00:51:52.379Z,0.00
2019-04-22T00:52:49.319Z,0.00
2019-04-22T00:53:50.761Z,0.00
2019-04-22T00:54:35.977Z,0.00
2019-04-22T00:55:47.460Z,0.00
2019-04-22T00:56:40.634Z,0.00
2019-04-22T00:57:46.295Z,0.00
2019-04-22T00:58:45.322Z,0.00
2019-04-22T00:59:49.637Z,0.00
2019-04-22T01:00:45.518Z,0.00
2019-04-22T01:01:45.654Z,0.00
2019-04-22T01:02:52.175Z,0.00
2019-04-22T01:04:49.445Z,0.00
2019-04-22T01:05:46.950Z,0.00
2019-04-22T01:06:44.526Z,0.00
2019-04-22T01:07:53.235Z,0.00
2019-04-22T01:08:53.646Z,0.00
2019-04-22T01:09:51.802Z,0.00
2019-04-22T01:10:59.033Z,0.00
2019-04-22T01:11:48.534Z,0.00
2019-04-22T01:13:49.813Z,0.00
2019-04-22T01:14:52.018Z,0.00
2019-04-22T01:15:47.802Z,0.00
2019-04-22T01:16:48.516Z,0.00
2019-04-22T01:17:52.969Z,0.00
2019-04-22T01:18:50.557Z,0.00
2019-04-22T01:19:56.217Z,0.00
2019-04-22T01:21:06.940Z,0.00
2019-04-22T01:21:43.834Z,0.00
2019-04-22T01:22:47.678Z,0.00
2019-04-22T01:23:49.096Z,0.00
2019-04-22T01:24:44.890Z,0.00
2019-04-22T01:25:46.276Z,0.00
2019-04-22T01:26:47.669Z,0.00
2019-04-22T01:27:39.288Z,0.00
2019-04-22T01:28:39.266Z,0.00
2019-04-22T01:29:39.698Z,0.00
2019-04-22T01:30:34.976Z,0.00
2019-04-22T01:31:30.598Z,0.00
2019-04-22T01:32:34.027Z,0.00
2019-04-22T01:33:33.161Z,0.00
2019-04-22T01:34:40.077Z,0.00
2019-04-22T01:35:39.778Z,0.00
2019-04-22T01:36:51.715Z,0.00
2019-04-22T01:37:46.101Z,0.00
2019-04-22T01:38:52.957Z,0.00
2019-04-22T01:39:50.066Z,0.00
2019-04-22T01:40:58.457Z,0.00
2019-04-22T01:42:06.102Z,0.00
2019-04-22T01:42:56.232Z,0.00
2019-04-22T01:43:59.016Z,0.00
2019-04-22T01:44:50.917Z,0.00
2019-04-22T01:45:53.333Z,0.00
2019-04-22T01:48:14.520Z,0.00
2019-04-22T01:48:57.406Z,0.00
2019-04-22T01:49:57.945Z,0.00
2019-04-22T01:50:49.901Z,0.00
2019-04-22T01:51:58.423Z,0.00
2019-04-22T01:53:00.933Z,0.00
2019-04-22T01:54:00.153Z,0.00
2019-04-22T01:54:56.871Z,0.00
2019-04-22T01:56:02.021Z,0.00
2019-04-22T01:56:55.765Z,0.00
2019-04-22T01:57:53.570Z,0.00
2019-04-22T01:58:50.210Z,0.00
2019-04-22T01:59:46.029Z,0.00
2019-04-22T02:01:00.047Z,0.00
2019-04-22T02:01:57.483Z,0.00
2019-04-22T02:03:02.462Z,0.00
2019-04-22T02:03:57.496Z,0.00
2019-04-22T02:05:02.161Z,0.00
2019-04-22T02:06:02.335Z,0.00
2019-04-22T02:06:57.695Z,0.00
2019-04-22T02:07:57.981Z,0.00
2019-04-22T02:09:02.031Z,0.00
2019-04-22T02:09:55.122Z,0.00
2019-04-22T02:12:04.659Z,0.00
2019-04-22T02:13:04.503Z,0.00
2019-04-22T02:13:56.790Z,0.00
2019-04-22T02:14:58.022Z,0.00
2019-04-22T02:15:58.498Z,0.00
2019-04-22T02:17:01.341Z,0.00
2019-04-22T02:18:02.763Z,0.00
2019-04-22T02:19:09.683Z,0.00
2019-04-22T02:20:00.859Z,0.00
2019-04-22T02:21:00.154Z,0.00
2019-04-22T02:21:55.970Z,0.00
2019-04-22T02:23:15.871Z,0.00
2019-04-22T02:24:05.290Z,0.00
2019-04-22T02:25:06.713Z,0.00
2019-04-22T02:26:02.485Z,0.00
2019-04-22T02:26:56.777Z,0.00
2019-04-22T02:28:11.126Z,0.00
2019-04-22T02:28:58.062Z,0.00
2019-04-22T02:29:58.441Z,0.00
2019-04-22T02:31:22.074Z,0.00
2019-04-22T02:32:15.311Z,0.00
2019-04-22T02:33:30.730Z,0.00
2019-04-22T02:34:18.737Z,0.00
2019-04-22T02:35:11.678Z,0.00
2019-04-22T02:36:19.125Z,0.00
2019-04-22T02:37:04.248Z,0.00
2019-04-22T02:38:08.057Z,0.00
2019-04-22T02:39:05.703Z,0.00
2019-04-22T02:40:09.202Z,0.00
2019-04-22T02:42:14.297Z,0.00
2019-04-22T02:43:12.536Z,0.00
2019-04-22T02:44:58.508Z,0.00
2019-04-22T02:47:11.985Z,0.00
2019-04-22T02:48:10.384Z,0.00
2019-04-22T02:51:12.442Z,0.00
2019-04-22T02:52:14.536Z,0.00
2019-04-22T02:53:13.854Z,0.00
2019-04-22T02:57:16.653Z,0.00
2019-04-22T02:58:06.268Z,0.00
2019-04-22T02:59:09.535Z,0.00
2019-04-22T03:00:15.900Z,0.00
2019-04-22T03:01:13.569Z,0.00
2019-04-22T03:02:03.171Z,0.00
2019-04-22T03:05:09.145Z,0.00
2019-04-22T03:07:03.342Z,0.00
2019-04-22T03:08:14.949Z,0.00
2019-04-22T03:09:16.302Z,0.00
2019-04-22T03:10:15.497Z,0.00
2019-04-22T03:11:13.524Z,0.00
2019-04-22T03:12:16.445Z,0.00
2019-04-22T03:13:21.301Z,0.00
2019-04-22T03:15:07.811Z,0.00
2019-04-22T03:18:09.998Z,0.00
2019-04-22T03:19:36.599Z,0.00
2019-04-22T03:21:15.952Z,0.00
2019-04-22T03:22:16.102Z,0.00
2019-04-22T03:23:25.034Z,0.00
2019-04-22T03:24:25.710Z,0.00
2019-04-22T03:25:42.328Z,0.00
2019-04-22T03:27:08.071Z,0.00
2019-04-22T03:28:10.307Z,0.00
2019-04-22T03:29:31.015Z,0.00
2019-04-22T03:30:48.278Z,0.00
2019-04-22T03:31:20.304Z,0.00
2019-04-22T03:32:39.458Z,0.00
2019-04-22T03:34:55.407Z,0.00
2019-04-22T03:36:49.210Z,0.00
2019-04-22T03:37:23.161Z,0.00
2019-04-22T03:38:08.581Z,0.00
2019-04-22T03:39:27.731Z,0.00
2019-04-22T03:42:23.456Z,0.00
2019-04-22T03:43:13.713Z,0.00
2019-04-22T03:44:23.465Z,0.00
2019-04-22T03:45:27.177Z,0.00
2019-04-22T03:46:05.146Z,0.00
2019-04-22T03:47:21.320Z,0.00
2019-04-22T03:48:26.383Z,0.00
2019-04-22T03:49:28.871Z,0.00
2019-04-22T03:51:25.296Z,0.00
2019-04-22T03:53:15.002Z,0.00
2019-04-22T03:56:36.544Z,0.00
2019-04-22T03:58:01.420Z,0.00
2019-04-22T04:00:30.321Z,0.00
2019-04-22T04:01:30.174Z,0.00
2019-04-22T04:02:26.260Z,0.00
2019-04-22T04:03:11.721Z,0.00
2019-04-22T04:04:32.736Z,0.00
2019-04-22T04:06:18.030Z,0.00
2019-04-22T04:08:31.863Z,0.00
2019-04-22T04:10:30.647Z,0.00
2019-04-22T04:11:26.270Z,0.00
2019-04-22T04:13:16.810Z,5.63
2019-04-22T04:14:35.897Z,5.63
2019-04-22T04:15:21.150Z,5.63
2019-04-22T04:16:30.379Z,5.63
2019-04-22T04:17:20.743Z,5.63
2019-04-22T04:18:41.267Z,5.63
2019-04-22T04:19:30.353Z,5.63
2019-04-22T04:22:32.201Z,11.25
2019-04-22T04:26:33.534Z,11.25
2019-04-22T04:27:43.995Z,11.25
2019-04-22T04:33:22.979Z,16.88
2019-04-22T04:34:55.847Z,16.88
2019-04-22T04:36:28.299Z,22.50
2019-04-22T04:38:24.485Z,22.50
2019-04-22T04:39:26.601Z,22.50
2019-04-22T04:40:29.208Z,22.50
2019-04-22T04:41:33.792Z,28.13
2019-04-22T04:43:25.846Z,28.13
2019-04-22T04:44:35.199Z,28.13
2019-04-22T04:46:47.414Z,33.75
2019-04-22T04:47:39.123Z,33.75
2019-04-22T04:49:32.384Z,39.38
2019-04-22T04:50:17.886Z,39.38
2019-04-22T04:51:32.921Z,39.38
2019-04-22T04:52:52.523Z,39.38
2019-04-22T04:53:34.133Z,39.38
2019-04-22T04:55:27.963Z,45.00
2019-04-22T04:56:30.468Z,45.00
2019-04-22T04:58:34.469Z,45.00
2019-04-22T04:59:42.004Z,45.00
2019-04-22T05:02:30.495Z,50.63
2019-04-22T05:03:29.769Z,50.63
2019-04-22T05:05:28.967Z,56.25
2019-04-22T05:06:33.076Z,56.25
2019-04-22T05:07:40.508Z,56.25
2019-04-22T05:08:39.174Z,56.25
2019-04-22T05:09:26.180Z,56.25
2019-04-22T05:10:49.728Z,56.25
2019-04-22T05:11:40.717Z,61.88
2019-04-22T05:12:45.382Z,61.88
2019-04-22T05:13:35.307Z,61.88
2019-04-22T05:14:24.307Z,61.88
2019-04-22T05:15:27.275Z,61.88
2019-04-22T05:17:25.506Z,67.50
2019-04-22T05:18:33.524Z,67.50
2019-04-22T05:19:26.513Z,67.50
2019-04-22T05:22:28.627Z,67.50
2019-04-22T05:24:31.362Z,73.13
2019-04-22T05:25:25.183Z,73.13
2019-04-22T05:26:28.089Z,73.13
2019-04-22T05:27:32.969Z,73.13
2019-04-22T05:28:24.459Z,73.13
2019-04-22T05:29:27.380Z,73.13
2019-04-22T05:31:22.422Z,73.13
2019-04-22T05:32:24.430Z,78.75
2019-04-22T05:33:21.475Z,78.75
2019-04-22T05:34:21.487Z,78.75
2019-04-22T05:35:26.548Z,78.75
2019-04-22T05:36:40.255Z,78.75
2019-04-22T05:37:27.690Z,78.75
2019-04-22T05:38:27.977Z,78.75
2019-04-22T05:39:22.679Z,78.75
2019-04-22T05:40:22.993Z,78.75
2019-04-22T05:41:27.222Z,84.38
2019-04-22T05:42:34.258Z,84.38
2019-04-22T05:43:21.586Z,84.38
2019-04-22T05:44:23.548Z,84.38
2019-04-22T05:46:22.392Z,84.38
2019-04-22T05:47:26.205Z,84.38
2019-04-22T05:48:30.531Z,84.38
2019-04-22T05:49:25.772Z,84.38
2019-04-22T05:50:22.833Z,84.38
2019-04-22T05:51:27.824Z,90.00
2019-04-22T05:53:31.264Z,90.00
2019-04-22T05:54:28.975Z,90.00
2019-04-22T05:55:32.710Z,90.00
2019-04-22T05:56:34.220Z,90.00
2019-04-22T05:57:23.392Z,90.00
2019-04-22T05:58:36.374Z,90.00
2019-04-22T05:59:24.987Z,90.00
2019-04-22T06:00:35.620Z,95.63
2019-04-22T06:02:43.175Z,95.63
2019-04-22T06:03:32.819Z,95.63
2019-04-22T06:04:25.642Z,95.63
2019-04-22T06:05:32.060Z,95.63
2019-04-22T06:06:22.513Z,95.63
2019-04-22T06:07:26.758Z,95.63
2019-04-22T06:08:23.276Z,95.63
2019-04-22T06:09:30.265Z,101.25
2019-04-22T06:10:37.612Z,101.25
2019-04-22T06:11:29.541Z,101.25
2019-04-22T06:12:23.378Z,101.25
2019-04-22T06:13:26.769Z,101.25
2019-04-22T06:14:26.368Z,101.25
2019-04-22T06:15:30.134Z,101.25
2019-04-22T06:16:31.343Z,101.25
2019-04-22T06:17:31.325Z,101.25
2019-04-22T06:18:27.469Z,101.25
2019-04-22T06:19:27.808Z,101.25
2019-04-22T06:20:32.140Z,101.25
2019-04-22T06:21:35.600Z,101.25
2019-04-22T06:22:41.743Z,101.25
2019-04-22T06:23:34.605Z,101.25
2019-04-22T06:24:27.511Z,101.25
2019-04-22T06:25:38.797Z,106.88
2019-04-22T06:26:40.653Z,106.88
2019-04-22T06:28:34.865Z,106.88
2019-04-22T06:29:41.308Z,106.88
2019-04-22T06:30:32.495Z,106.88
2019-04-22T06:31:38.188Z,106.88
2019-04-22T06:33:53.245Z,106.88
2019-04-22T06:36:43.138Z,112.50
2019-04-22T06:37:41.993Z,112.50
2019-04-22T06:39:34.312Z,112.50
2019-04-22T06:40:34.261Z,112.50
2019-04-22T06:41:34.883Z,118.13
2019-04-22T06:42:35.880Z,118.13
2019-04-22T06:43:35.522Z,118.13
2019-04-22T06:44:29.897Z,118.13
2019-04-22T06:45:30.595Z,118.13
2019-04-22T06:46:33.575Z,118.13
2019-04-22T06:47:44.114Z,118.13
2019-04-22T06:48:29.802Z,118.13
2019-04-22T06:49:35.589Z,118.13
2019-04-22T06:50:40.119Z,118.13
2019-04-22T06:51:35.643Z,118.13
2019-04-22T06:52:36.606Z,118.13
2019-04-22T06:53:37.440Z,118.13
2019-04-22T06:54:32.521Z,118.13
2019-04-22T06:55:35.735Z,123.75
2019-04-22T06:56:30.270Z,118.13
2019-04-22T06:57:30.539Z,118.13
2019-04-22T06:58:34.996Z,118.13
2019-04-22T06:59:33.119Z,118.13
2019-04-22T07:00:36.703Z,118.13
2019-04-22T07:01:36.922Z,118.13
2019-04-22T07:02:45.243Z,118.13
2019-04-22T07:04:35.886Z,118.13
2019-04-22T07:05:35.107Z,118.13
2019-04-22T07:07:34.523Z,123.75
2019-04-22T07:09:05.914Z,118.13
2019-04-22T07:11:33.919Z,123.75
2019-04-22T07:12:36.470Z,123.75
2019-04-22T07:13:36.761Z,123.75
2019-04-22T07:14:35.586Z,123.75
2019-04-22T07:15:46.343Z,123.75
2019-04-22T07:16:38.206Z,123.75
2019-04-22T07:18:40.857Z,123.75
2019-04-22T07:19:40.919Z,123.75
2019-04-22T07:20:42.194Z,123.75
2019-04-22T07:21:30.842Z,123.75
2019-04-22T07:22:35.756Z,123.75
2019-04-22T07:23:41.694Z,123.75
2019-04-22T07:25:36.380Z,123.75
2019-04-22T07:26:36.223Z,123.75
2019-04-22T07:27:34.583Z,123.75
2019-04-22T07:28:29.148Z,123.75
2019-04-22T07:29:42.480Z,129.38
2019-04-22T07:30:40.495Z,129.38
2019-04-22T07:31:37.297Z,129.38
2019-04-22T07:32:59.180Z,129.38
2019-04-22T07:33:37.921Z,129.38
2019-04-22T07:34:40.484Z,129.38
2019-04-22T07:35:48.927Z,129.38
2019-04-22T07:37:41.977Z,129.38
2019-04-22T07:38:50.457Z,129.38
2019-04-22T07:39:39.579Z,129.38
2019-04-22T07:40:43.600Z,129.38
2019-04-22T07:41:37.767Z,129.38
2019-04-22T07:42:36.868Z,129.38
2019-04-22T07:43:59.649Z,135.00
2019-04-22T07:44:38.490Z,135.00
2019-04-22T07:45:43.763Z,135.00
2019-04-22T07:46:43.515Z,135.00
2019-04-22T07:47:38.090Z,135.00
2019-04-22T07:50:50.653Z,135.00
2019-04-22T07:52:38.819Z,135.00
2019-04-22T07:53:45.430Z,135.00
2019-04-22T07:54:44.934Z,140.63
2019-04-22T07:55:40.459Z,140.63
2019-04-22T07:56:45.347Z,140.63
2019-04-22T07:57:39.552Z,140.63
2019-04-22T07:58:42.197Z,140.63
2019-04-22T07:59:40.787Z,140.63
2019-04-22T08:00:38.658Z,140.63
2019-04-22T08:01:38.606Z,140.63
2019-04-22T08:02:44.074Z,140.63
2019-04-22T08:03:56.632Z,140.63
2019-04-22T08:04:53.767Z,140.63
2019-04-22T08:05:52.141Z,140.63
2019-04-22T08:06:46.381Z,140.63
2019-04-22T08:07:45.386Z,146.25
2019-04-22T08:08:46.005Z,146.25
2019-04-22T08:09:55.635Z,146.25
2019-04-22T08:10:49.627Z,146.25
2019-04-22T08:12:47.363Z,146.25
2019-04-22T08:13:40.687Z,146.25
2019-04-22T08:14:45.846Z,146.25
2019-04-22T08:15:48.523Z,151.88
2019-04-22T08:16:51.290Z,151.88
2019-04-22T08:18:39.542Z,151.88
2019-04-22T08:19:49.458Z,151.88
2019-04-22T08:20:58.482Z,151.88
2019-04-22T08:21:49.353Z,151.88
2019-04-22T08:22:52.196Z,151.88
2019-04-22T08:23:51.401Z,157.50
2019-04-22T08:24:51.097Z,157.50
2019-04-22T08:25:46.163Z,157.50
2019-04-22T08:26:50.935Z,157.50
2019-04-22T08:27:42.808Z,157.50
2019-04-22T08:28:46.895Z,157.50
2019-04-22T08:29:53.491Z,157.50
2019-04-22T08:30:51.939Z,163.13
2019-04-22T08:31:49.147Z,163.13
2019-04-22T08:32:46.065Z,163.13
2019-04-22T08:33:46.712Z,163.13
2019-04-22T08:34:42.660Z,163.13
2019-04-22T08:36:00.462Z,163.13
2019-04-22T08:37:50.763Z,163.13
2019-04-22T08:38:52.800Z,163.13
2019-04-22T08:40:08.822Z,168.75
2019-04-22T08:40:48.756Z,168.75
2019-04-22T08:41:40.340Z,168.75
2019-04-22T08:45:51.027Z,174.38
2019-04-22T08:46:48.917Z,174.38
2019-04-22T08:48:03.023Z,174.38
2019-04-22T08:48:51.503Z,180.00
2019-04-22T08:49:59.698Z,180.00
2019-04-22T08:51:01.179Z,180.00
2019-04-22T08:51:49.390Z,180.00
2019-04-22T08:52:53.527Z,180.00
2019-04-22T08:53:58.900Z,185.63
2019-04-22T08:54:50.549Z,185.63
2019-04-22T08:55:56.031Z,185.63
2019-04-22T08:56:45.615Z,185.63
2019-04-22T08:58:13.363Z,191.25
2019-04-22T08:58:57.409Z,191.25
2019-04-22T08:59:48.766Z,191.25
2019-04-22T09:01:05.087Z,196.88
2019-04-22T09:01:47.003Z,196.88
2019-04-22T09:02:55.139Z,196.88
2019-04-22T09:03:52.448Z,196.88
2019-04-22T09:04:48.339Z,202.50
2019-04-22T09:07:53.868Z,208.13
2019-04-22T09:08:56.910Z,208.13
2019-04-22T09:09:50.647Z,208.13
2019-04-22T09:10:48.565Z,208.13
2019-04-22T09:11:54.777Z,208.13
2019-04-22T09:15:02.468Z,208.13
2019-04-22T09:15:49.110Z,213.75
2019-04-22T09:16:48.703Z,213.75
2019-04-22T09:18:00.434Z,213.75
2019-04-22T09:18:57.496Z,213.75
2019-04-22T09:19:55.209Z,213.75
2019-04-22T09:20:58.823Z,213.75
2019-04-22T09:21:54.570Z,213.75
2019-04-22T09:22:57.033Z,213.75
2019-04-22T09:24:00.778Z,213.75
2019-04-22T09:24:51.783Z,225.00
2019-04-22T09:25:59.846Z,219.38
2019-04-22T09:27:00.332Z,219.38
2019-04-22T09:28:10.668Z,225.00
2019-04-22T09:29:03.273Z,225.00
2019-04-22T09:29:56.070Z,225.00
2019-04-22T09:30:55.624Z,225.00
2019-04-22T09:32:01.830Z,225.00
2019-04-22T09:33:53.627Z,230.63
2019-04-22T09:34:51.980Z,230.63
2019-04-22T09:36:05.601Z,230.63
2019-04-22T09:37:01.544Z,230.63
2019-04-22T09:38:52.916Z,230.63
2019-04-22T09:39:59.862Z,230.63
2019-04-22T09:40:52.644Z,230.63
2019-04-22T09:42:00.512Z,225.00
2019-04-22T09:42:56.156Z,236.25
2019-04-22T09:44:00.531Z,230.63
2019-04-22T09:44:53.585Z,236.25
2019-04-22T09:45:52.619Z,236.25
2019-04-22T09:46:51.988Z,236.25
2019-04-22T09:48:00.865Z,230.63
2019-04-22T09:49:04.735Z,236.25
2019-04-22T09:50:54.022Z,241.88
2019-04-22T09:51:58.166Z,241.88
2019-04-22T09:54:01.227Z,241.88
2019-04-22T09:55:15.409Z,247.50
2019-04-22T09:56:01.688Z,247.50
2019-04-22T09:56:56.453Z,247.50
2019-04-22T09:57:56.733Z,247.50
2019-04-22T09:58:55.662Z,247.50
2019-04-22T10:00:07.838Z,247.50
2019-04-22T10:01:03.092Z,258.75
2019-04-22T10:02:14.623Z,253.13
2019-04-22T10:03:00.530Z,253.13
2019-04-22T10:05:00.154Z,258.75
2019-04-22T10:06:13.297Z,258.75
2019-04-22T10:06:54.694Z,264.38
2019-04-22T10:08:03.272Z,258.75
2019-04-22T10:09:26.295Z,264.38
2019-04-22T10:10:03.655Z,264.38
2019-04-22T10:11:06.004Z,264.38
2019-04-22T10:11:57.734Z,270.00
2019-04-22T10:12:54.074Z,264.38
2019-04-22T10:13:58.683Z,270.00
2019-04-22T10:15:18.401Z,270.00
2019-04-22T10:16:08.071Z,275.63
2019-04-22T10:16:59.974Z,281.25
2019-04-22T10:18:04.832Z,281.25
2019-04-22T10:20:01.129Z,281.25
2019-04-22T10:21:02.380Z,286.88
2019-04-22T10:22:02.948Z,286.88
2019-04-22T10:22:57.460Z,286.88
2019-04-22T10:24:05.431Z,286.88
2019-04-22T10:25:03.311Z,286.88
2019-04-22T10:26:04.973Z,292.50
2019-04-22T10:27:01.727Z,292.50
2019-04-22T10:28:08.841Z,298.13
2019-04-22T10:29:09.170Z,298.13
2019-04-22T10:31:05.416Z,303.75
2019-04-22T10:32:00.928Z,309.38
2019-04-22T10:33:02.047Z,315.00
2019-04-22T10:33:53.225Z,331.88
2019-04-22T10:34:45.759Z,337.50
2019-04-22T10:35:39.352Z,371.25
2019-04-22T10:36:38.434Z,911.25
2019-04-22T10:37:38.629Z,663.75
2019-04-22T10:38:38.157Z,1186.88
2019-04-22T10:39:45.838Z,2379.38
2019-04-22T10:40:38.818Z,3448.13
2019-04-22T10:41:38.975Z,1310.63
2019-04-22T10:42:38.984Z,1783.13
2019-04-22T10:43:39.201Z,2649.38
2019-04-22T10:44:39.249Z,2536.88
2019-04-22T10:45:39.807Z,2649.38
2019-04-22T10:46:40.257Z,2908.13
2019-04-22T10:47:40.358Z,523.13
2019-04-22T10:48:40.130Z,579.38
2019-04-22T10:49:40.368Z,1794.38
2019-04-22T10:50:41.034Z,3054.38
2019-04-22T10:51:40.363Z,2739.38
2019-04-22T10:52:41.382Z,2424.38
2019-04-22T10:53:41.607Z,551.25
2019-04-22T10:54:41.265Z,461.25
2019-04-22T10:55:43.439Z,2953.13
2019-04-22T10:56:41.095Z,2227.50
2019-04-22T10:57:41.051Z,2593.13
2019-04-22T10:58:42.438Z,1591.88
2019-04-22T10:59:41.097Z,1248.75
2019-04-22T11:00:41.839Z,2503.13
2019-04-22T11:01:42.337Z,2205.00
2019-04-22T11:02:41.618Z,1732.50
2019-04-22T11:03:41.677Z,1783.13
2019-04-22T11:04:41.817Z,1288.13
2019-04-22T11:05:42.126Z,1057.50
2019-04-22T11:06:51.833Z,821.25
2019-04-22T11:07:51.423Z,562.50
2019-04-22T11:08:50.489Z,1226.25
2019-04-22T11:09:52.013Z,1186.88
2019-04-22T11:11:00.594Z,708.75
2019-04-22T11:11:52.098Z,984.38
2019-04-22T11:12:43.274Z,1226.25
2019-04-22T11:13:44.033Z,1057.50
2019-04-22T11:14:43.406Z,810.00
2019-04-22T11:15:44.589Z,618.75
2019-04-22T11:16:43.665Z,759.38
2019-04-22T11:17:43.868Z,956.25
2019-04-22T11:18:45.370Z,804.38
2019-04-22T11:19:44.047Z,708.75
2019-04-22T11:20:44.178Z,534.38
2019-04-22T11:21:57.060Z,534.38
2019-04-22T11:22:44.688Z,607.50
2019-04-22T11:23:44.790Z,528.75
2019-04-22T11:24:44.724Z,540.00
2019-04-22T11:25:46.049Z,528.75
2019-04-22T11:26:45.226Z,534.38
2019-04-22T11:27:45.158Z,534.38
2019-04-22T11:28:45.524Z,517.50
2019-04-22T11:29:45.725Z,511.88
2019-04-22T11:30:45.557Z,517.50
2019-04-22T11:31:46.454Z,523.13
2019-04-22T11:32:46.565Z,523.13
2019-04-22T11:33:46.017Z,517.50
2019-04-22T11:34:47.044Z,517.50
2019-04-22T11:35:46.291Z,517.50
2019-04-22T11:36:47.218Z,517.50
2019-04-22T11:37:46.758Z,511.88
2019-04-22T11:38:54.046Z,511.88
2019-04-22T11:39:54.494Z,506.25
2019-04-22T11:40:50.463Z,506.25
2019-04-22T11:41:47.144Z,506.25
2019-04-22T11:42:48.210Z,495.00
2019-04-22T11:43:47.474Z,500.63
2019-04-22T11:44:47.629Z,500.63
2019-04-22T11:45:49.124Z,489.38
2019-04-22T11:46:47.875Z,495.00
2019-04-22T11:47:48.021Z,483.75
2019-04-22T11:48:48.156Z,483.75
2019-04-22T11:49:48.316Z,489.38
2019-04-22T11:50:48.451Z,489.38
2019-04-22T11:51:49.782Z,506.25
2019-04-22T11:52:48.949Z,500.63
2019-04-22T11:53:49.169Z,478.13
2019-04-22T11:54:49.023Z,483.75
2019-04-22T11:55:49.169Z,478.13
2019-04-22T11:56:49.568Z,483.75
2019-04-22T11:57:49.865Z,483.75
2019-04-22T11:58:50.809Z,483.75
2019-04-22T11:59:51.071Z,478.13
2019-04-22T12:00:51.474Z,483.75
2019-04-22T12:01:51.031Z,483.75
2019-04-22T12:02:51.169Z,478.13
2019-04-22T12:03:51.649Z,478.13
2019-04-22T12:04:51.822Z,483.75
2019-04-22T12:05:52.078Z,478.13
2019-04-22T12:06:51.739Z,478.13
2019-04-22T12:07:51.015Z,478.13
2019-04-22T12:08:51.917Z,478.13
2019-04-22T12:09:51.411Z,478.13
2019-04-22T12:10:55.396Z,478.13
2019-04-22T12:11:51.752Z,478.13
2019-04-22T12:12:53.424Z,472.50
2019-04-22T12:13:51.943Z,472.50
2019-04-22T12:14:52.330Z,478.13
2019-04-22T12:15:53.351Z,472.50
2019-04-22T12:16:53.182Z,466.88
2019-04-22T12:17:53.097Z,455.63
2019-04-22T12:18:53.488Z,461.25
2019-04-22T12:19:52.744Z,472.50
2019-04-22T12:20:53.175Z,472.50
2019-04-22T12:21:53.261Z,472.50
2019-04-22T12:22:53.433Z,472.50
2019-04-22T12:23:54.809Z,478.13
2019-04-22T12:24:54.388Z,478.13
2019-04-22T12:26:00.938Z,483.75
2019-04-22T12:26:53.809Z,478.13
2019-04-22T12:27:55.106Z,489.38
2019-04-22T12:28:55.057Z,489.38
2019-04-22T12:29:54.230Z,478.13
2019-04-22T12:30:55.327Z,472.50
2019-04-22T12:31:55.574Z,472.50
2019-04-22T12:32:54.771Z,483.75
2019-04-22T12:33:55.133Z,478.13
2019-04-22T12:34:55.563Z,483.75
2019-04-22T12:35:55.119Z,489.38
2019-04-22T12:36:56.320Z,489.38
2019-04-22T12:38:00.688Z,495.00
2019-04-22T12:38:55.730Z,495.00
2019-04-22T12:39:56.560Z,500.63
2019-04-22T12:41:00.672Z,500.63
2019-04-22T12:41:56.247Z,500.63
2019-04-22T12:42:57.532Z,506.25
2019-04-22T12:43:56.249Z,500.63
2019-04-22T12:44:56.382Z,500.63
2019-04-22T12:45:56.520Z,506.25
2019-04-22T12:46:56.652Z,506.25
2019-04-22T12:47:57.919Z,495.00
2019-04-22T12:48:58.225Z,495.00
2019-04-22T12:50:10.341Z,483.75
2019-04-22T12:50:58.496Z,478.13
2019-04-22T12:51:58.844Z,489.38
2019-04-22T12:53:03.031Z,500.63
2019-04-22T12:53:58.990Z,483.75
2019-04-22T12:54:57.775Z,483.75
2019-04-22T12:55:59.322Z,483.75
2019-04-22T12:56:59.601Z,478.13
2019-04-22T12:58:00.755Z,472.50
2019-04-22T12:58:59.372Z,466.88
2019-04-22T12:59:59.593Z,478.13
2019-04-22T13:00:58.951Z,478.13
2019-04-22T13:01:58.752Z,478.13
2019-04-22T13:02:58.965Z,483.75
2019-04-22T13:04:05.730Z,483.75
2019-04-22T13:05:00.346Z,489.38
2019-04-22T13:05:59.418Z,489.38
2019-04-22T13:06:59.749Z,489.38
2019-04-22T13:08:00.092Z,483.75
2019-04-22T13:09:00.271Z,483.75
2019-04-22T13:10:01.262Z,483.75
2019-04-22T13:11:06.855Z,489.38
2019-04-22T13:12:01.250Z,483.75
2019-04-22T13:13:00.873Z,483.75
2019-04-22T13:14:00.939Z,489.38
2019-04-22T13:15:01.516Z,489.38
2019-04-22T13:16:00.751Z,489.38
2019-04-22T13:17:02.040Z,489.38
2019-04-22T13:18:10.324Z,489.38
2019-04-22T13:19:05.645Z,495.00
2019-04-22T13:20:02.501Z,489.38
2019-04-22T13:21:02.310Z,489.38
2019-04-22T13:22:02.815Z,489.38
2019-04-22T13:23:02.197Z,483.75
2019-04-22T13:24:02.701Z,483.75
2019-04-22T13:25:02.134Z,478.13
2019-04-22T13:26:03.058Z,472.50
2019-04-22T13:27:03.320Z,455.63
2019-04-22T13:28:03.025Z,461.25
2019-04-22T13:29:03.246Z,461.25
2019-04-22T13:30:04.570Z,461.25
2019-04-22T13:31:03.778Z,455.63
2019-04-22T13:32:03.041Z,450.00
2019-04-22T13:33:03.179Z,461.25
2019-04-22T13:34:04.065Z,466.88
2019-04-22T13:35:04.989Z,466.88
2019-04-22T13:36:03.806Z,478.13
2019-04-22T13:37:05.026Z,483.75
2019-04-22T13:38:04.809Z,483.75
2019-04-22T13:39:04.841Z,478.13
2019-04-22T13:40:05.387Z,472.50
2019-04-22T13:41:28.254Z,472.50
2019-04-22T13:42:07.504Z,466.88
2019-04-22T13:43:04.911Z,461.25
2019-04-22T13:44:05.002Z,461.25
2019-04-22T13:45:04.938Z,455.63
2019-04-22T13:46:06.042Z,450.00
2019-04-22T13:47:26.948Z,438.75
2019-04-22T13:48:21.994Z,438.75
2019-04-22T13:49:31.091Z,421.88
2019-04-22T13:51:40.991Z,410.63
2019-04-22T13:55:38.497Z,393.75
2019-04-22T13:56:24.831Z,393.75
2019-04-22T13:57:27.655Z,388.13
2019-04-22T13:58:18.507Z,388.13
2019-04-22T13:59:13.607Z,388.13
2019-04-22T14:00:09.546Z,371.25
2019-04-22T14:01:07.178Z,382.50
2019-04-22T14:02:08.485Z,371.25
2019-04-22T14:03:08.749Z,376.88
2019-04-22T14:04:07.518Z,382.50
2019-04-22T14:05:08.619Z,382.50
2019-04-22T14:06:09.069Z,376.88
2019-04-22T14:07:07.950Z,365.63
2019-04-22T14:08:08.790Z,365.63
2019-04-22T14:09:09.543Z,365.63
2019-04-22T14:10:08.679Z,371.25
2019-04-22T14:11:16.993Z,371.25
2019-04-22T14:12:11.463Z,371.25
2019-04-22T14:13:09.969Z,365.63
2019-04-22T14:14:09.254Z,365.63
2019-04-22T14:15:09.846Z,360.00
2019-04-22T14:16:09.168Z,360.00
2019-04-22T14:17:09.325Z,348.75
2019-04-22T14:18:10.661Z,348.75
2019-04-22T14:19:09.985Z,360.00
2019-04-22T14:20:10.933Z,360.00
2019-04-22T14:21:09.862Z,360.00
2019-04-22T14:22:10.006Z,360.00
2019-04-22T14:23:11.732Z,360.00
2019-04-22T14:24:12.501Z,360.00
2019-04-22T14:25:10.635Z,365.63
2019-04-22T14:26:11.251Z,354.38